sensor_id;sensor_type;location;lat;lon;timestamp;P1;durP1;ratioP1;P2;durP2;ratioP2
56102;SDS011;41970;48.774;9.280;2023-03-23T00:02:25;2.83;;;2.47;;
56102;SDS011;41970;48.774;9.280;2023-03-23T00:04:52;4.37;;;2.50;;
56102;SDS011;41970;48.774;9.280;2023-03-23T00:07:18;4.20;;;2.10;;
56102;SDS011;41970;48.774;9.280;2023-03-23T00:09:52;2.77;;;2.30;;
56102;SDS011;41970;48.774;9.280;2023-03-23T00:12:23;3.40;;;2.50;;
56102;SDS011;41970;48.774;9.280;2023-03-23T00:15:03;2.67;;;2.23;;
56102;SDS011;41970;48.774;9.280;2023-03-23T00:17:31;2.93;;;2.20;;
56102;SDS011;41970;48.774;9.280;2023-03-23T00:19:58;3.70;;;2.40;;
56102;SDS011;41970;48.774;9.280;2023-03-23T00:22:26;3.77;;;2.47;;
56102;SDS011;41970;48.774;9.280;2023-03-23T00:24:52;2.43;;;2.10;;
56102;SDS011;41970;48.774;9.280;2023-03-23T00:27:18;3.47;;;2.70;;
56102;SDS011;41970;48.774;9.280;2023-03-23T00:29:46;2.47;;;2.20;;
56102;SDS011;41970;48.774;9.280;2023-03-23T00:32:13;4.60;;;2.43;;
56102;SDS011;41970;48.774;9.280;2023-03-23T00:34:41;2.50;;;2.30;;
56102;SDS011;41970;48.774;9.280;2023-03-23T00:37:09;2.17;;;1.97;;
56102;SDS011;41970;48.774;9.280;2023-03-23T00:39:35;3.10;;;2.07;;
56102;SDS011;41970;48.774;9.280;2023-03-23T00:42:03;2.90;;;2.47;;
56102;SDS011;41970;48.774;9.280;2023-03-23T00:44:30;2.40;;;2.10;;
56102;SDS011;41970;48.774;9.280;2023-03-23T00:46:57;1.87;;;1.77;;
56102;SDS011;41970;48.774;9.280;2023-03-23T00:49:24;2.80;;;2.10;;
56102;SDS011;41970;48.774;9.280;2023-03-23T00:51:54;4.50;;;1.70;;
56102;SDS011;41970;48.774;9.280;2023-03-23T00:54:23;1.90;;;1.63;;
56102;SDS011;41970;48.774;9.280;2023-03-23T00:56:50;3.60;;;1.70;;
56102;SDS011;41970;48.774;9.280;2023-03-23T00:59:16;2.23;;;1.97;;
56102;SDS011;41970;48.774;9.280;2023-03-23T01:01:42;3.03;;;2.20;;
56102;SDS011;41970;48.774;9.280;2023-03-23T01:04:08;3.27;;;2.13;;
56102;SDS011;41970;48.774;9.280;2023-03-23T01:06:37;2.60;;;2.17;;
56102;SDS011;41970;48.774;9.280;2023-03-23T01:09:09;3.60;;;2.10;;
56102;SDS011;41970;48.774;9.280;2023-03-23T01:11:39;2.70;;;1.93;;
56102;SDS011;41970;48.774;9.280;2023-03-23T01:14:09;2.60;;;2.40;;
56102;SDS011;41970;48.774;9.280;2023-03-23T01:16:35;2.27;;;2.00;;
56102;SDS011;41970;48.774;9.280;2023-03-23T01:19:01;3.27;;;2.30;;
56102;SDS011;41970;48.774;9.280;2023-03-23T01:21:27;2.40;;;1.80;;
56102;SDS011;41970;48.774;9.280;2023-03-23T01:23:53;2.60;;;1.80;;
56102;SDS011;41970;48.774;9.280;2023-03-23T01:26:20;3.30;;;1.90;;
56102;SDS011;41970;48.774;9.280;2023-03-23T01:28:47;2.40;;;2.20;;
56102;SDS011;41970;48.774;9.280;2023-03-23T01:31:17;2.07;;;1.87;;
56102;SDS011;41970;48.774;9.280;2023-03-23T01:33:45;2.37;;;2.17;;
56102;SDS011;41970;48.774;9.280;2023-03-23T01:36:12;2.40;;;2.03;;
56102;SDS011;41970;48.774;9.280;2023-03-23T01:38:41;4.17;;;1.80;;
56102;SDS011;41970;48.774;9.280;2023-03-23T01:41:08;2.33;;;1.90;;
56102;SDS011;41970;48.774;9.280;2023-03-23T01:43:34;1.80;;;1.70;;
56102;SDS011;41970;48.774;9.280;2023-03-23T01:46:00;2.53;;;2.00;;
56102;SDS011;41970;48.774;9.280;2023-03-23T01:51:10;3.83;;;2.93;;
56102;SDS011;41970;48.774;9.280;2023-03-23T01:53:50;2.80;;;2.57;;
56102;SDS011;41970;48.774;9.280;2023-03-23T01:56:20;2.97;;;2.20;;
56102;SDS011;41970;48.774;9.280;2023-03-23T01:58:50;3.70;;;2.30;;
56102;SDS011;41970;48.774;9.280;2023-03-23T02:01:19;3.87;;;2.40;;
56102;SDS011;41970;48.774;9.280;2023-03-23T02:03:47;2.90;;;2.10;;
56102;SDS011;41970;48.774;9.280;2023-03-23T02:06:13;2.70;;;2.50;;
56102;SDS011;41970;48.774;9.280;2023-03-23T02:08:40;2.50;;;2.17;;
56102;SDS011;41970;48.774;9.280;2023-03-23T02:11:12;2.27;;;1.90;;
56102;SDS011;41970;48.774;9.280;2023-03-23T02:13:42;3.73;;;2.40;;
56102;SDS011;41970;48.774;9.280;2023-03-23T02:16:13;2.60;;;1.90;;
56102;SDS011;41970;48.774;9.280;2023-03-23T02:26:57;3.33;;;2.10;;
56102;SDS011;41970;48.774;9.280;2023-03-23T02:32:12;3.20;;;1.90;;
56102;SDS011;41970;48.774;9.280;2023-03-23T02:35:02;3.53;;;2.13;;
56102;SDS011;41970;48.774;9.280;2023-03-23T02:37:46;3.50;;;1.90;;
56102;SDS011;41970;48.774;9.280;2023-03-23T02:40:21;2.90;;;2.10;;
56102;SDS011;41970;48.774;9.280;2023-03-23T02:42:54;2.30;;;2.07;;
56102;SDS011;41970;48.774;9.280;2023-03-23T02:45:22;2.50;;;2.00;;
56102;SDS011;41970;48.774;9.280;2023-03-23T02:47:52;3.00;;;1.93;;
56102;SDS011;41970;48.774;9.280;2023-03-23T02:50:20;1.90;;;1.73;;
56102;SDS011;41970;48.774;9.280;2023-03-23T02:52:48;4.00;;;2.20;;
56102;SDS011;41970;48.774;9.280;2023-03-23T02:55:16;2.23;;;1.70;;
56102;SDS011;41970;48.774;9.280;2023-03-23T02:57:44;1.83;;;1.70;;
56102;SDS011;41970;48.774;9.280;2023-03-23T03:00:12;2.77;;;1.63;;
56102;SDS011;41970;48.774;9.280;2023-03-23T03:02:50;2.73;;;2.40;;
56102;SDS011;41970;48.774;9.280;2023-03-23T03:11:05;4.30;;;2.53;;
56102;SDS011;41970;48.774;9.280;2023-03-23T03:16:24;2.93;;;2.10;;
56102;SDS011;41970;48.774;9.280;2023-03-23T03:18:57;3.70;;;2.40;;
56102;SDS011;41970;48.774;9.280;2023-03-23T03:21:27;2.40;;;1.70;;
56102;SDS011;41970;48.774;9.280;2023-03-23T03:23:55;2.73;;;2.40;;
56102;SDS011;41970;48.774;9.280;2023-03-23T03:26:26;4.00;;;2.53;;
56102;SDS011;41970;48.774;9.280;2023-03-23T03:28:53;3.70;;;2.50;;
56102;SDS011;41970;48.774;9.280;2023-03-23T03:31:30;2.80;;;2.50;;
56102;SDS011;41970;48.774;9.280;2023-03-23T03:34:00;2.90;;;2.30;;
56102;SDS011;41970;48.774;9.280;2023-03-23T03:36:31;4.80;;;2.47;;
56102;SDS011;41970;48.774;9.280;2023-03-23T03:39:05;4.00;;;2.30;;
56102;SDS011;41970;48.774;9.280;2023-03-23T03:41:37;2.57;;;2.37;;
56102;SDS011;41970;48.774;9.280;2023-03-23T03:44:04;1.93;;;1.83;;
56102;SDS011;41970;48.774;9.280;2023-03-23T03:46:30;3.07;;;2.50;;
56102;SDS011;41970;48.774;9.280;2023-03-23T03:48:57;3.10;;;2.00;;
56102;SDS011;41970;48.774;9.280;2023-03-23T03:51:23;3.50;;;2.17;;
56102;SDS011;41970;48.774;9.280;2023-03-23T03:53:50;3.30;;;2.27;;
56102;SDS011;41970;48.774;9.280;2023-03-23T03:56:16;2.30;;;2.10;;
56102;SDS011;41970;48.774;9.280;2023-03-23T03:58:42;3.90;;;1.87;;
56102;SDS011;41970;48.774;9.280;2023-03-23T04:01:09;2.43;;;2.23;;
56102;SDS011;41970;48.774;9.280;2023-03-23T04:03:35;2.43;;;1.77;;
56102;SDS011;41970;48.774;9.280;2023-03-23T04:06:02;3.63;;;2.20;;
56102;SDS011;41970;48.774;9.280;2023-03-23T04:08:28;2.00;;;1.70;;
56102;SDS011;41970;48.774;9.280;2023-03-23T04:10:54;2.00;;;1.80;;
56102;SDS011;41970;48.774;9.280;2023-03-23T04:13:20;3.13;;;2.27;;
56102;SDS011;41970;48.774;9.280;2023-03-23T04:15:46;2.03;;;1.57;;
56102;SDS011;41970;48.774;9.280;2023-03-23T04:18:13;1.67;;;1.57;;
56102;SDS011;41970;48.774;9.280;2023-03-23T04:20:42;3.40;;;2.00;;
56102;SDS011;41970;48.774;9.280;2023-03-23T04:23:13;2.03;;;1.33;;
56102;SDS011;41970;48.774;9.280;2023-03-23T04:25:39;1.93;;;1.73;;
56102;SDS011;41970;48.774;9.280;2023-03-23T04:28:07;2.00;;;1.80;;
56102;SDS011;41970;48.774;9.280;2023-03-23T04:30:35;2.63;;;1.70;;
56102;SDS011;41970;48.774;9.280;2023-03-23T04:33:01;1.60;;;1.40;;
56102;SDS011;41970;48.774;9.280;2023-03-23T04:35:27;2.43;;;1.90;;
56102;SDS011;41970;48.774;9.280;2023-03-23T04:37:54;2.23;;;2.00;;
56102;SDS011;41970;48.774;9.280;2023-03-23T04:40:21;1.70;;;1.60;;
56102;SDS011;41970;48.774;9.280;2023-03-23T04:42:47;2.07;;;1.90;;
56102;SDS011;41970;48.774;9.280;2023-03-23T04:45:17;2.50;;;2.20;;
56102;SDS011;41970;48.774;9.280;2023-03-23T04:47:46;2.40;;;2.20;;
56102;SDS011;41970;48.774;9.280;2023-03-23T04:50:18;2.87;;;2.27;;
56102;SDS011;41970;48.774;9.280;2023-03-23T04:52:49;2.60;;;1.60;;
56102;SDS011;41970;48.774;9.280;2023-03-23T04:55:16;2.13;;;1.80;;
56102;SDS011;41970;48.774;9.280;2023-03-23T04:57:44;4.77;;;2.60;;
56102;SDS011;41970;48.774;9.280;2023-03-23T05:00:10;2.60;;;2.40;;
56102;SDS011;41970;48.774;9.280;2023-03-23T05:02:39;5.47;;;3.53;;
56102;SDS011;41970;48.774;9.280;2023-03-23T05:05:09;3.10;;;2.00;;
56102;SDS011;41970;48.774;9.280;2023-03-23T05:07:39;2.80;;;2.10;;
56102;SDS011;41970;48.774;9.280;2023-03-23T05:10:07;2.97;;;2.43;;
56102;SDS011;41970;48.774;9.280;2023-03-23T05:12:34;2.33;;;2.13;;
56102;SDS011;41970;48.774;9.280;2023-03-23T05:15:00;2.60;;;2.17;;
56102;SDS011;41970;48.774;9.280;2023-03-23T05:17:26;2.77;;;2.57;;
56102;SDS011;41970;48.774;9.280;2023-03-23T05:19:52;3.43;;;1.80;;
56102;SDS011;41970;48.774;9.280;2023-03-23T05:22:18;3.23;;;2.20;;
56102;SDS011;41970;48.774;9.280;2023-03-23T05:24:46;1.70;;;1.60;;
56102;SDS011;41970;48.774;9.280;2023-03-23T05:27:12;3.00;;;2.27;;
56102;SDS011;41970;48.774;9.280;2023-03-23T05:29:40;2.60;;;2.17;;
56102;SDS011;41970;48.774;9.280;2023-03-23T05:32:09;2.33;;;2.13;;
56102;SDS011;41970;48.774;9.280;2023-03-23T05:34:36;1.80;;;1.70;;
56102;SDS011;41970;48.774;9.280;2023-03-23T05:37:02;3.23;;;2.40;;
56102;SDS011;41970;48.774;9.280;2023-03-23T05:39:29;2.40;;;1.93;;
56102;SDS011;41970;48.774;9.280;2023-03-23T05:41:56;3.43;;;1.90;;
56102;SDS011;41970;48.774;9.280;2023-03-23T05:44:22;2.90;;;2.23;;
56102;SDS011;41970;48.774;9.280;2023-03-23T05:46:48;3.63;;;3.33;;
56102;SDS011;41970;48.774;9.280;2023-03-23T05:49:15;2.53;;;2.30;;
56102;SDS011;41970;48.774;9.280;2023-03-23T05:51:41;3.20;;;2.90;;
56102;SDS011;41970;48.774;9.280;2023-03-23T05:54:09;8.93;;;5.43;;
56102;SDS011;41970;48.774;9.280;2023-03-23T05:56:35;4.33;;;2.87;;
56102;SDS011;41970;48.774;9.280;2023-03-23T05:59:02;4.43;;;3.60;;
56102;SDS011;41970;48.774;9.280;2023-03-23T06:01:28;3.40;;;3.00;;
56102;SDS011;41970;48.774;9.280;2023-03-23T06:03:54;6.50;;;4.90;;
56102;SDS011;41970;48.774;9.280;2023-03-23T06:06:23;11.97;;;6.47;;
56102;SDS011;41970;48.774;9.280;2023-03-23T06:08:50;11.10;;;7.10;;
56102;SDS011;41970;48.774;9.280;2023-03-23T06:11:16;10.50;;;5.37;;
56102;SDS011;41970;48.774;9.280;2023-03-23T06:13:42;7.53;;;5.70;;
56102;SDS011;41970;48.774;9.280;2023-03-23T06:16:09;8.30;;;5.50;;
56102;SDS011;41970;48.774;9.280;2023-03-23T06:18:35;14.40;;;6.90;;
56102;SDS011;41970;48.774;9.280;2023-03-23T06:21:04;8.87;;;5.00;;
56102;SDS011;41970;48.774;9.280;2023-03-23T06:23:31;9.73;;;7.10;;
56102;SDS011;41970;48.774;9.280;2023-03-23T06:25:57;11.07;;;6.73;;
56102;SDS011;41970;48.774;9.280;2023-03-23T06:28:25;8.30;;;5.00;;
56102;SDS011;41970;48.774;9.280;2023-03-23T06:30:52;9.57;;;5.90;;
56102;SDS011;41970;48.774;9.280;2023-03-23T06:33:18;8.13;;;5.03;;
56102;SDS011;41970;48.774;9.280;2023-03-23T06:35:44;4.50;;;3.30;;
56102;SDS011;41970;48.774;9.280;2023-03-23T06:38:10;3.27;;;2.70;;
56102;SDS011;41970;48.774;9.280;2023-03-23T06:40:36;6.13;;;2.90;;
56102;SDS011;41970;48.774;9.280;2023-03-23T06:43:02;4.43;;;3.20;;
56102;SDS011;41970;48.774;9.280;2023-03-23T06:45:28;3.10;;;2.80;;
56102;SDS011;41970;48.774;9.280;2023-03-23T06:47:55;4.10;;;3.17;;
56102;SDS011;41970;48.774;9.280;2023-03-23T06:50:21;6.60;;;2.60;;
56102;SDS011;41970;48.774;9.280;2023-03-23T06:52:47;4.00;;;3.60;;
56102;SDS011;41970;48.774;9.280;2023-03-23T06:55:15;3.87;;;2.70;;
56102;SDS011;41970;48.774;9.280;2023-03-23T06:57:42;2.03;;;1.83;;
56102;SDS011;41970;48.774;9.280;2023-03-23T07:00:09;3.40;;;2.47;;
56102;SDS011;41970;48.774;9.280;2023-03-23T07:02:38;4.50;;;2.37;;
56102;SDS011;41970;48.774;9.280;2023-03-23T07:05:07;2.57;;;2.23;;
56102;SDS011;41970;48.774;9.280;2023-03-23T07:07:38;3.57;;;2.30;;
56102;SDS011;41970;48.774;9.280;2023-03-23T07:10:05;3.87;;;2.97;;
56102;SDS011;41970;48.774;9.280;2023-03-23T07:12:34;5.50;;;2.97;;
56102;SDS011;41970;48.774;9.280;2023-03-23T07:15:04;3.17;;;2.87;;
56102;SDS011;41970;48.774;9.280;2023-03-23T07:17:33;3.30;;;2.80;;
56102;SDS011;41970;48.774;9.280;2023-03-23T07:19:58;5.20;;;2.53;;
56102;SDS011;41970;48.774;9.280;2023-03-23T07:22:24;3.67;;;2.83;;
56102;SDS011;41970;48.774;9.280;2023-03-23T07:24:50;4.00;;;2.90;;
56102;SDS011;41970;48.774;9.280;2023-03-23T07:27:16;4.77;;;3.30;;
56102;SDS011;41970;48.774;9.280;2023-03-23T07:29:41;6.57;;;3.10;;
56102;SDS011;41970;48.774;9.280;2023-03-23T07:32:10;3.80;;;2.93;;
56102;SDS011;41970;48.774;9.280;2023-03-23T07:34:37;5.00;;;3.80;;
56102;SDS011;41970;48.774;9.280;2023-03-23T07:37:03;5.23;;;3.17;;
56102;SDS011;41970;48.774;9.280;2023-03-23T07:39:30;2.87;;;2.50;;
56102;SDS011;41970;48.774;9.280;2023-03-23T07:41:56;2.83;;;2.63;;
56102;SDS011;41970;48.774;9.280;2023-03-23T07:44:22;5.73;;;3.27;;
56102;SDS011;41970;48.774;9.280;2023-03-23T07:46:48;3.83;;;2.70;;
56102;SDS011;41970;48.774;9.280;2023-03-23T07:49:15;3.57;;;3.27;;
56102;SDS011;41970;48.774;9.280;2023-03-23T07:51:41;3.23;;;2.90;;
56102;SDS011;41970;48.774;9.280;2023-03-23T07:54:06;4.73;;;2.93;;
56102;SDS011;41970;48.774;9.280;2023-03-23T07:56:33;4.10;;;3.30;;
56102;SDS011;41970;48.774;9.280;2023-03-23T07:59:00;4.27;;;2.50;;
56102;SDS011;41970;48.774;9.280;2023-03-23T08:01:27;6.13;;;3.10;;
56102;SDS011;41970;48.774;9.280;2023-03-23T08:03:53;6.27;;;2.80;;
56102;SDS011;41970;48.774;9.280;2023-03-23T08:06:22;3.90;;;2.57;;
56102;SDS011;41970;48.774;9.280;2023-03-23T08:08:51;5.73;;;3.20;;
56102;SDS011;41970;48.774;9.280;2023-03-23T08:11:18;3.03;;;1.93;;
56102;SDS011;41970;48.774;9.280;2023-03-23T08:13:45;2.90;;;2.20;;
56102;SDS011;41970;48.774;9.280;2023-03-23T08:16:11;3.53;;;1.80;;
56102;SDS011;41970;48.774;9.280;2023-03-23T08:18:38;2.40;;;2.20;;
56102;SDS011;41970;48.774;9.280;2023-03-23T08:21:05;3.30;;;1.93;;
56102;SDS011;41970;48.774;9.280;2023-03-23T08:23:33;3.37;;;2.20;;
56102;SDS011;41970;48.774;9.280;2023-03-23T08:26:00;1.93;;;1.73;;
56102;SDS011;41970;48.774;9.280;2023-03-23T08:28:25;4.30;;;2.37;;
56102;SDS011;41970;48.774;9.280;2023-03-23T08:30:51;3.50;;;1.90;;
56102;SDS011;41970;48.774;9.280;2023-03-23T08:33:17;4.20;;;2.20;;
56102;SDS011;41970;48.774;9.280;2023-03-23T08:35:43;2.90;;;2.40;;
56102;SDS011;41970;48.774;9.280;2023-03-23T08:38:10;2.53;;;2.33;;
56102;SDS011;41970;48.774;9.280;2023-03-23T08:40:36;2.40;;;2.00;;
56102;SDS011;41970;48.774;9.280;2023-03-23T08:43:03;2.53;;;2.33;;
56102;SDS011;41970;48.774;9.280;2023-03-23T08:45:29;3.10;;;2.60;;
56102;SDS011;41970;48.774;9.280;2023-03-23T08:47:55;2.43;;;2.20;;
56102;SDS011;41970;48.774;9.280;2023-03-23T08:50:25;2.60;;;2.33;;
56102;SDS011;41970;48.774;9.280;2023-03-23T08:52:52;2.30;;;2.00;;
56102;SDS011;41970;48.774;9.280;2023-03-23T08:55:19;2.20;;;2.00;;
56102;SDS011;41970;48.774;9.280;2023-03-23T08:57:46;2.87;;;2.00;;
56102;SDS011;41970;48.774;9.280;2023-03-23T09:00:17;4.23;;;2.40;;
56102;SDS011;41970;48.774;9.280;2023-03-23T09:02:48;2.43;;;1.93;;
56102;SDS011;41970;48.774;9.280;2023-03-23T09:05:16;2.20;;;2.00;;
56102;SDS011;41970;48.774;9.280;2023-03-23T09:07:46;4.77;;;2.73;;
56102;SDS011;41970;48.774;9.280;2023-03-23T09:10:14;2.33;;;2.13;;
56102;SDS011;41970;48.774;9.280;2023-03-23T09:12:41;3.20;;;2.10;;
56102;SDS011;41970;48.774;9.280;2023-03-23T09:15:09;2.30;;;2.07;;
56102;SDS011;41970;48.774;9.280;2023-03-23T09:17:38;3.20;;;2.80;;
56102;SDS011;41970;48.774;9.280;2023-03-23T09:20:06;2.30;;;2.10;;
56102;SDS011;41970;48.774;9.280;2023-03-23T09:22:37;2.40;;;2.20;;
56102;SDS011;41970;48.774;9.280;2023-03-23T09:25:09;2.20;;;2.00;;
56102;SDS011;41970;48.774;9.280;2023-03-23T09:27:37;2.70;;;2.33;;
56102;SDS011;41970;48.774;9.280;2023-03-23T09:30:07;3.33;;;2.50;;
56102;SDS011;41970;48.774;9.280;2023-03-23T09:32:37;3.47;;;2.50;;
56102;SDS011;41970;48.774;9.280;2023-03-23T09:35:05;3.53;;;2.17;;
56102;SDS011;41970;48.774;9.280;2023-03-23T09:37:39;2.17;;;1.87;;
56102;SDS011;41970;48.774;9.280;2023-03-23T09:40:06;2.27;;;1.80;;
56102;SDS011;41970;48.774;9.280;2023-03-23T09:42:39;3.13;;;2.20;;
56102;SDS011;41970;48.774;9.280;2023-03-23T09:45:35;3.73;;;1.70;;
56102;SDS011;41970;48.774;9.280;2023-03-23T09:50:48;3.80;;;2.07;;
56102;SDS011;41970;48.774;9.280;2023-03-23T09:53:23;2.40;;;2.20;;
56102;SDS011;41970;48.774;9.280;2023-03-23T09:55:56;1.90;;;1.63;;
56102;SDS011;41970;48.774;9.280;2023-03-23T09:58:25;4.23;;;1.93;;
56102;SDS011;41970;48.774;9.280;2023-03-23T10:01:10;6.87;;;2.00;;
56102;SDS011;41970;48.774;9.280;2023-03-23T10:03:48;1.90;;;1.80;;
56102;SDS011;41970;48.774;9.280;2023-03-23T10:06:17;1.90;;;1.80;;
56102;SDS011;41970;48.774;9.280;2023-03-23T10:08:45;2.57;;;1.90;;
56102;SDS011;41970;48.774;9.280;2023-03-23T10:21:51;2.70;;;1.90;;
56102;SDS011;41970;48.774;9.280;2023-03-23T10:24:19;4.27;;;2.10;;
56102;SDS011;41970;48.774;9.280;2023-03-23T10:30:11;3.50;;;2.30;;
56102;SDS011;41970;48.774;9.280;2023-03-23T10:32:36;4.20;;;1.67;;
56102;SDS011;41970;48.774;9.280;2023-03-23T10:35:07;3.63;;;2.03;;
56102;SDS011;41970;48.774;9.280;2023-03-23T10:37:40;1.73;;;1.63;;
56102;SDS011;41970;48.774;9.280;2023-03-23T10:40:17;2.60;;;1.93;;
56102;SDS011;41970;48.774;9.280;2023-03-23T10:42:46;3.43;;;2.27;;
56102;SDS011;41970;48.774;9.280;2023-03-23T10:47:39;3.73;;;2.23;;
56102;SDS011;41970;48.774;9.280;2023-03-23T10:50:17;3.70;;;1.70;;
56102;SDS011;41970;48.774;9.280;2023-03-23T10:52:49;3.40;;;1.97;;
56102;SDS011;41970;48.774;9.280;2023-03-23T10:55:19;2.73;;;2.00;;
56102;SDS011;41970;48.774;9.280;2023-03-23T11:00:45;2.07;;;1.70;;
56102;SDS011;41970;48.774;9.280;2023-03-23T11:08:22;2.67;;;1.83;;
56102;SDS011;41970;48.774;9.280;2023-03-23T11:11:17;2.13;;;1.93;;
56102;SDS011;41970;48.774;9.280;2023-03-23T11:13:47;2.20;;;1.50;;
56102;SDS011;41970;48.774;9.280;2023-03-23T11:16:26;3.50;;;2.83;;
56102;SDS011;41970;48.774;9.280;2023-03-23T11:18:57;2.00;;;1.80;;
56102;SDS011;41970;48.774;9.280;2023-03-23T11:21:24;2.00;;;1.80;;
56102;SDS011;41970;48.774;9.280;2023-03-23T11:23:57;4.30;;;2.23;;
56102;SDS011;41970;48.774;9.280;2023-03-23T11:26:25;2.43;;;1.90;;
56102;SDS011;41970;48.774;9.280;2023-03-23T11:28:58;2.83;;;1.90;;
56102;SDS011;41970;48.774;9.280;2023-03-23T11:31:39;10.17;;;2.67;;
56102;SDS011;41970;48.774;9.280;2023-03-23T11:34:31;5.53;;;2.10;;
56102;SDS011;41970;48.774;9.280;2023-03-23T11:37:13;2.40;;;2.20;;
56102;SDS011;41970;48.774;9.280;2023-03-23T11:48:03;1.80;;;1.60;;
56102;SDS011;41970;48.774;9.280;2023-03-23T11:53:35;2.47;;;2.10;;
56102;SDS011;41970;48.774;9.280;2023-03-23T11:56:35;2.33;;;2.13;;
56102;SDS011;41970;48.774;9.280;2023-03-23T11:59:03;5.17;;;3.40;;
56102;SDS011;41970;48.774;9.280;2023-03-23T12:11:18;3.97;;;2.03;;
56102;SDS011;41970;48.774;9.280;2023-03-23T12:17:07;2.77;;;2.30;;
56102;SDS011;41970;48.774;9.280;2023-03-23T12:19:18;2.40;;;2.20;;
56102;SDS011;41970;48.774;9.280;2023-03-23T12:22:12;2.80;;;2.00;;
56102;SDS011;41970;48.774;9.280;2023-03-23T12:33:32;3.70;;;2.40;;
56102;SDS011;41970;48.774;9.280;2023-03-23T12:39:01;2.13;;;2.03;;
56102;SDS011;41970;48.774;9.280;2023-03-23T12:44:24;2.90;;;2.43;;
56102;SDS011;41970;48.774;9.280;2023-03-23T12:49:55;2.20;;;2.00;;
56102;SDS011;41970;48.774;9.280;2023-03-23T12:53:02;2.03;;;1.83;;
56102;SDS011;41970;48.774;9.280;2023-03-23T12:55:42;2.53;;;2.00;;
56102;SDS011;41970;48.774;9.280;2023-03-23T12:58:23;1.77;;;1.67;;
56102;SDS011;41970;48.774;9.280;2023-03-23T13:06:45;3.80;;;2.00;;
56102;SDS011;41970;48.774;9.280;2023-03-23T13:11:53;2.13;;;1.93;;
56102;SDS011;41970;48.774;9.280;2023-03-23T13:14:32;3.30;;;2.00;;
56102;SDS011;41970;48.774;9.280;2023-03-23T13:25:32;1.90;;;1.80;;
56102;SDS011;41970;48.774;9.280;2023-03-23T13:28:19;3.00;;;2.00;;
56102;SDS011;41970;48.774;9.280;2023-03-23T13:31:01;2.77;;;2.00;;
56102;SDS011;41970;48.774;9.280;2023-03-23T13:33:29;2.20;;;2.00;;
56102;SDS011;41970;48.774;9.280;2023-03-23T13:36:04;2.67;;;2.40;;
56102;SDS011;41970;48.774;9.280;2023-03-23T13:38:35;3.00;;;1.80;;
56102;SDS011;41970;48.774;9.280;2023-03-23T13:41:06;5.53;;;2.27;;
56102;SDS011;41970;48.774;9.280;2023-03-23T13:43:35;3.70;;;2.50;;
56102;SDS011;41970;48.774;9.280;2023-03-23T13:46:07;2.13;;;1.93;;
56102;SDS011;41970;48.774;9.280;2023-03-23T13:48:43;2.30;;;2.00;;
56102;SDS011;41970;48.774;9.280;2023-03-23T13:54:06;1.70;;;1.60;;
56102;SDS011;41970;48.774;9.280;2023-03-23T13:56:46;2.33;;;1.77;;
56102;SDS011;41970;48.774;9.280;2023-03-23T14:01:52;2.30;;;2.10;;
56102;SDS011;41970;48.774;9.280;2023-03-23T14:04:20;2.30;;;2.10;;
56102;SDS011;41970;48.774;9.280;2023-03-23T14:06:48;7.40;;;3.70;;
56102;SDS011;41970;48.774;9.280;2023-03-23T14:12:34;2.77;;;2.30;;
56102;SDS011;41970;48.774;9.280;2023-03-23T14:17:33;3.33;;;2.93;;
56102;SDS011;41970;48.774;9.280;2023-03-23T14:20:30;4.00;;;2.30;;
56102;SDS011;41970;48.774;9.280;2023-03-23T14:22:59;2.23;;;2.03;;
56102;SDS011;41970;48.774;9.280;2023-03-23T14:25:31;2.50;;;2.00;;
56102;SDS011;41970;48.774;9.280;2023-03-23T14:27:58;2.53;;;2.23;;
56102;SDS011;41970;48.774;9.280;2023-03-23T14:30:27;2.23;;;2.03;;
56102;SDS011;41970;48.774;9.280;2023-03-23T14:33:04;3.60;;;2.37;;
56102;SDS011;41970;48.774;9.280;2023-03-23T14:35:34;2.73;;;2.50;;
56102;SDS011;41970;48.774;9.280;2023-03-23T14:38:03;3.73;;;2.20;;
56102;SDS011;41970;48.774;9.280;2023-03-23T14:40:30;2.80;;;2.27;;
56102;SDS011;41970;48.774;9.280;2023-03-23T14:42:56;2.83;;;2.50;;
56102;SDS011;41970;48.774;9.280;2023-03-23T14:45:23;3.30;;;2.57;;
56102;SDS011;41970;48.774;9.280;2023-03-23T14:47:52;3.20;;;2.33;;
56102;SDS011;41970;48.774;9.280;2023-03-23T14:50:27;3.90;;;2.70;;
56102;SDS011;41970;48.774;9.280;2023-03-23T14:53:03;2.20;;;2.00;;
56102;SDS011;41970;48.774;9.280;2023-03-23T14:55:47;6.10;;;2.33;;
56102;SDS011;41970;48.774;9.280;2023-03-23T14:58:15;3.00;;;2.70;;
56102;SDS011;41970;48.774;9.280;2023-03-23T15:00:45;3.20;;;2.07;;
56102;SDS011;41970;48.774;9.280;2023-03-23T15:03:15;2.07;;;1.90;;
56102;SDS011;41970;48.774;9.280;2023-03-23T15:05:53;2.33;;;2.13;;
56102;SDS011;41970;48.774;9.280;2023-03-23T15:11:05;2.40;;;2.20;;
56102;SDS011;41970;48.774;9.280;2023-03-23T15:13:54;2.30;;;2.10;;
56102;SDS011;41970;48.774;9.280;2023-03-23T15:16:30;4.30;;;2.50;;
56102;SDS011;41970;48.774;9.280;2023-03-23T15:19:01;3.07;;;2.67;;
56102;SDS011;41970;48.774;9.280;2023-03-23T15:21:30;5.87;;;2.50;;
56102;SDS011;41970;48.774;9.280;2023-03-23T15:24:02;3.93;;;2.40;;
56102;SDS011;41970;48.774;9.280;2023-03-23T15:26:45;2.50;;;2.30;;
56102;SDS011;41970;48.774;9.280;2023-03-23T15:29:12;2.60;;;2.40;;
56102;SDS011;41970;48.774;9.280;2023-03-23T15:31:47;3.40;;;2.77;;
56102;SDS011;41970;48.774;9.280;2023-03-23T15:34:36;3.60;;;2.77;;
56102;SDS011;41970;48.774;9.280;2023-03-23T15:37:04;3.37;;;2.23;;
56102;SDS011;41970;48.774;9.280;2023-03-23T15:39:40;2.87;;;2.57;;
56102;SDS011;41970;48.774;9.280;2023-03-23T15:42:07;3.53;;;2.60;;
56102;SDS011;41970;48.774;9.280;2023-03-23T15:44:54;2.70;;;2.20;;
56102;SDS011;41970;48.774;9.280;2023-03-23T15:47:22;2.77;;;2.33;;
56102;SDS011;41970;48.774;9.280;2023-03-23T15:50:01;3.10;;;2.50;;
56102;SDS011;41970;48.774;9.280;2023-03-23T15:52:47;4.03;;;2.40;;
56102;SDS011;41970;48.774;9.280;2023-03-23T15:55:21;3.33;;;2.20;;
56102;SDS011;41970;48.774;9.280;2023-03-23T15:58:00;3.10;;;2.77;;
56102;SDS011;41970;48.774;9.280;2023-03-23T16:00:30;5.03;;;2.07;;
56102;SDS011;41970;48.774;9.280;2023-03-23T16:03:00;5.00;;;2.80;;
56102;SDS011;41970;48.774;9.280;2023-03-23T16:05:28;2.70;;;2.20;;
56102;SDS011;41970;48.774;9.280;2023-03-23T16:07:54;6.97;;;2.90;;
56102;SDS011;41970;48.774;9.280;2023-03-23T16:10:22;4.03;;;2.40;;
56102;SDS011;41970;48.774;9.280;2023-03-23T16:12:48;2.70;;;2.30;;
56102;SDS011;41970;48.774;9.280;2023-03-23T16:15:15;4.10;;;2.83;;
56102;SDS011;41970;48.774;9.280;2023-03-23T16:17:41;2.80;;;2.60;;
56102;SDS011;41970;48.774;9.280;2023-03-23T16:20:12;2.83;;;2.60;;
56102;SDS011;41970;48.774;9.280;2023-03-23T16:22:40;3.90;;;2.30;;
56102;SDS011;41970;48.774;9.280;2023-03-23T16:25:06;3.10;;;2.30;;
56102;SDS011;41970;48.774;9.280;2023-03-23T16:27:32;3.50;;;2.70;;
56102;SDS011;41970;48.774;9.280;2023-03-23T16:29:58;4.27;;;2.57;;
56102;SDS011;41970;48.774;9.280;2023-03-23T16:32:27;3.27;;;2.30;;
56102;SDS011;41970;48.774;9.280;2023-03-23T16:34:53;2.43;;;2.23;;
56102;SDS011;41970;48.774;9.280;2023-03-23T16:37:19;3.03;;;2.50;;
56102;SDS011;41970;48.774;9.280;2023-03-23T16:39:45;3.47;;;2.17;;
56102;SDS011;41970;48.774;9.280;2023-03-23T16:42:11;2.33;;;1.97;;
56102;SDS011;41970;48.774;9.280;2023-03-23T16:44:37;2.40;;;2.20;;
56102;SDS011;41970;48.774;9.280;2023-03-23T16:47:03;2.63;;;2.43;;
56102;SDS011;41970;48.774;9.280;2023-03-23T16:49:29;2.40;;;2.20;;
56102;SDS011;41970;48.774;9.280;2023-03-23T16:51:55;5.10;;;2.77;;
56102;SDS011;41970;48.774;9.280;2023-03-23T16:54:22;3.80;;;2.50;;
56102;SDS011;41970;48.774;9.280;2023-03-23T16:56:48;2.90;;;2.50;;
56102;SDS011;41970;48.774;9.280;2023-03-23T16:59:14;3.07;;;2.77;;
56102;SDS011;41970;48.774;9.280;2023-03-23T17:01:39;2.90;;;2.10;;
56102;SDS011;41970;48.774;9.280;2023-03-23T17:04:07;4.07;;;2.17;;
56102;SDS011;41970;48.774;9.280;2023-03-23T17:06:34;5.40;;;2.40;;